sensor_id;sensor_type;location;lat;lon;timestamp;pressure;altitude;pressure_sealevel;temperature;humidity
35758;BME280;21879;50.110;18.900;2022-10-16T00:05:51;98821.48;;;15.52;63.40
35758;BME280;21879;50.110;18.900;2022-10-16T00:16:19;98834.38;;;15.48;63.46
35758;BME280;21879;50.110;18.900;2022-10-16T00:26:50;98835.02;;;15.50;63.62
35758;BME280;21879;50.110;18.900;2022-10-16T00:37:18;98833.64;;;15.44;63.60
35758;BME280;21879;50.110;18.900;2022-10-16T00:47:46;98836.34;;;15.47;63.73
35758;BME280;21879;50.110;18.900;2022-10-16T00:58:15;98836.46;;;15.43;63.68
35758;BME280;21879;50.110;18.900;2022-10-16T01:08:53;98840.52;;;15.35;63.83
35758;BME280;21879;50.110;18.900;2022-10-16T01:19:31;98845.43;;;15.29;63.94
35758;BME280;21879;50.110;18.900;2022-10-16T01:30:07;98840.34;;;15.22;64.15
35758;BME280;21879;50.110;18.900;2022-10-16T01:40:39;98842.88;;;15.19;64.27
35758;BME280;21879;50.110;18.900;2022-10-16T01:51:11;98840.33;;;15.09;64.28
35758;BME280;21879;50.110;18.900;2022-10-16T02:01:42;98844.35;;;15.02;64.55
35758;BME280;21879;50.110;18.900;2022-10-16T02:12:15;98860.07;;;14.90;64.37
35758;BME280;21879;50.110;18.900;2022-10-16T02:22:45;98876.70;;;14.75;64.40
35758;BME280;21879;50.110;18.900;2022-10-16T02:33:15;98883.60;;;14.79;64.52
35758;BME280;21879;50.110;18.900;2022-10-16T02:43:43;98886.88;;;14.74;64.26
35758;BME280;21879;50.110;18.900;2022-10-16T02:54:11;98873.23;;;14.43;64.13
35758;BME280;21879;50.110;18.900;2022-10-16T03:04:39;98883.48;;;13.95;64.79
35758;BME280;21879;50.110;18.900;2022-10-16T03:15:06;98891.27;;;13.90;65.00
35758;BME280;21879;50.110;18.900;2022-10-16T03:25:33;98894.60;;;13.81;64.88
35758;BME280;21879;50.110;18.900;2022-10-16T03:36:01;98902.35;;;13.78;64.76
35758;BME280;21879;50.110;18.900;2022-10-16T03:46:29;98902.60;;;13.65;64.63
35758;BME280;21879;50.110;18.900;2022-10-16T03:56:56;98907.60;;;13.50;64.63
35758;BME280;21879;50.110;18.900;2022-10-16T04:07:24;98908.05;;;13.45;64.91
35758;BME280;21879;50.110;18.900;2022-10-16T04:17:52;98909.66;;;13.32;64.98
35758;BME280;21879;50.110;18.900;2022-10-16T04:28:18;98912.35;;;13.28;65.45
35758;BME280;21879;50.110;18.900;2022-10-16T04:38:46;98905.84;;;13.31;65.67
35758;BME280;21879;50.110;18.900;2022-10-16T04:49:13;98913.08;;;13.25;65.13
35758;BME280;21879;50.110;18.900;2022-10-16T04:59:41;98918.20;;;13.21;65.19
35758;BME280;21879;50.110;18.900;2022-10-16T05:10:09;98937.98;;;13.16;64.81
35758;BME280;21879;50.110;18.900;2022-10-16T05:20:36;98941.23;;;13.22;65.22
35758;BME280;21879;50.110;18.900;2022-10-16T05:31:07;98944.56;;;13.22;65.09
35758;BME280;21879;50.110;18.900;2022-10-16T05:41:35;98951.73;;;13.09;65.00
35758;BME280;21879;50.110;18.900;2022-10-16T05:52:03;98967.46;;;13.08;65.45
35758;BME280;21879;50.110;18.900;2022-10-16T06:02:30;98975.96;;;13.11;65.39
35758;BME280;21879;50.110;18.900;2022-10-16T06:12:58;98985.02;;;13.13;65.56
35758;BME280;21879;50.110;18.900;2022-10-16T06:23:25;99003.38;;;13.24;65.99
35758;BME280;21879;50.110;18.900;2022-10-16T06:33:56;99019.70;;;13.41;66.68
35758;BME280;21879;50.110;18.900;2022-10-16T06:44:24;99035.36;;;13.66;67.39
35758;BME280;21879;50.110;18.900;2022-10-16T06:54:52;99035.71;;;13.97;67.78
35758;BME280;21879;50.110;18.900;2022-10-16T07:05:18;99039.84;;;14.29;68.18
35758;BME280;21879;50.110;18.900;2022-10-16T07:15:45;99042.55;;;14.62;67.94
35758;BME280;21879;50.110;18.900;2022-10-16T07:26:13;99056.41;;;14.86;67.94
35758;BME280;21879;50.110;18.900;2022-10-16T07:36:42;99058.21;;;15.08;67.89
35758;BME280;21879;50.110;18.900;2022-10-16T07:47:10;99062.30;;;15.28;67.54
35758;BME280;21879;50.110;18.900;2022-10-16T07:57:37;99069.80;;;15.45;66.62
35758;BME280;21879;50.110;18.900;2022-10-16T08:08:05;99077.56;;;15.57;66.20
35758;BME280;21879;50.110;18.900;2022-10-16T08:18:31;99080.40;;;15.72;65.96
35758;BME280;21879;50.110;18.900;2022-10-16T08:28:59;99077.54;;;15.82;65.69
35758;BME280;21879;50.110;18.900;2022-10-16T08:39:25;99078.10;;;15.95;65.53
35758;BME280;21879;50.110;18.900;2022-10-16T08:49:59;99084.71;;;16.17;64.80
35758;BME280;21879;50.110;18.900;2022-10-16T09:00:28;99093.93;;;16.40;64.06
35758;BME280;21879;50.110;18.900;2022-10-16T09:10:59;99093.27;;;16.64;63.59
35758;BME280;21879;50.110;18.900;2022-10-16T09:21:33;99092.08;;;17.01;62.56
35758;BME280;21879;50.110;18.900;2022-10-16T09:32:12;99101.48;;;17.27;61.46
35758;BME280;21879;50.110;18.900;2022-10-16T09:42:40;99104.67;;;17.44;60.50
35758;BME280;21879;50.110;18.900;2022-10-16T09:53:12;99115.20;;;17.72;60.58
35758;BME280;21879;50.110;18.900;2022-10-16T10:03:41;99114.73;;;18.04;59.50
35758;BME280;21879;50.110;18.900;2022-10-16T10:14:18;99115.52;;;18.22;58.16
35758;BME280;21879;50.110;18.900;2022-10-16T10:24:56;99117.55;;;18.30;57.83
35758;BME280;21879;50.110;18.900;2022-10-16T10:35:32;99120.23;;;18.44;58.03
35758;BME280;21879;50.110;18.900;2022-10-16T10:46:13;99129.32;;;18.56;58.54
35758;BME280;21879;50.110;18.900;2022-10-16T10:56:49;99131.45;;;18.61;58.32
35758;BME280;21879;50.110;18.900;2022-10-16T11:07:22;99120.66;;;18.57;57.56
35758;BME280;21879;50.110;18.900;2022-10-16T11:17:55;99107.65;;;18.51;57.34
35758;BME280;21879;50.110;18.900;2022-10-16T11:28:29;99111.52;;;18.46;57.17
35758;BME280;21879;50.110;18.900;2022-10-16T11:39:07;99111.15;;;18.47;57.38
35758;BME280;21879;50.110;18.900;2022-10-16T11:49:41;99111.66;;;18.58;57.78
35758;BME280;21879;50.110;18.900;2022-10-16T12:00:14;99115.64;;;18.64;58.00
35758;BME280;21879;50.110;18.900;2022-10-16T12:10:47;99110.96;;;18.73;58.07
35758;BME280;21879;50.110;18.900;2022-10-16T12:21:16;99126.23;;;18.84;57.89
35758;BME280;21879;50.110;18.900;2022-10-16T12:31:47;99141.80;;;18.92;58.08
35758;BME280;21879;50.110;18.900;2022-10-16T12:42:31;99146.87;;;18.98;58.31
35758;BME280;21879;50.110;18.900;2022-10-16T12:53:00;99147.50;;;19.05;58.96
35758;BME280;21879;50.110;18.900;2022-10-16T13:03:43;99154.45;;;19.08;59.13
35758;BME280;21879;50.110;18.900;2022-10-16T13:14:27;99158.63;;;19.05;59.35
35758;BME280;21879;50.110;18.900;2022-10-16T13:25:13;99160.11;;;18.97;58.42
35758;BME280;21879;50.110;18.900;2022-10-16T13:35:49;99167.09;;;18.89;57.96
35758;BME280;21879;50.110;18.900;2022-10-16T13:46:22;99164.43;;;18.90;57.81
35758;BME280;21879;50.110;18.900;2022-10-16T13:56:50;99163.10;;;18.97;57.40
35758;BME280;21879;50.110;18.900;2022-10-16T14:07:35;99143.35;;;18.83;57.69
35758;BME280;21879;50.110;18.900;2022-10-16T14:18:04;99163.73;;;18.74;58.33
35758;BME280;21879;50.110;18.900;2022-10-16T14:28:32;99180.95;;;18.71;58.50
35758;BME280;21879;50.110;18.900;2022-10-16T14:39:05;99181.34;;;18.69;58.48
35758;BME280;21879;50.110;18.900;2022-10-16T14:49:34;99188.04;;;18.69;59.04
35758;BME280;21879;50.110;18.900;2022-10-16T15:00:02;99198.77;;;18.80;60.10
35758;BME280;21879;50.110;18.900;2022-10-16T15:10:30;99198.44;;;18.80;59.62
35758;BME280;21879;50.110;18.900;2022-10-16T15:20:58;99199.46;;;18.64;59.36
35758;BME280;21879;50.110;18.900;2022-10-16T15:31:26;99209.86;;;18.54;60.41
35758;BME280;21879;50.110;18.900;2022-10-16T15:41:54;99220.85;;;18.51;60.80
35758;BME280;21879;50.110;18.900;2022-10-16T15:52:21;99226.56;;;18.44;61.01
35758;BME280;21879;50.110;18.900;2022-10-16T16:02:53;99234.63;;;18.13;60.64
35758;BME280;21879;50.110;18.900;2022-10-16T16:13:21;99251.77;;;18.05;61.40
35758;BME280;21879;50.110;18.900;2022-10-16T16:23:48;99258.98;;;18.11;61.60
35758;BME280;21879;50.110;18.900;2022-10-16T16:34:16;99265.45;;;18.06;61.55
35758;BME280;21879;50.110;18.900;2022-10-16T16:44:44;99285.13;;;17.95;61.68
35758;BME280;21879;50.110;18.900;2022-10-16T16:55:12;99301.16;;;17.83;61.83
35758;BME280;21879;50.110;18.900;2022-10-16T17:05:40;99327.02;;;17.64;62.03
35758;BME280;21879;50.110;18.900;2022-10-16T17:16:08;99338.80;;;17.51;61.97
35758;BME280;21879;50.110;18.900;2022-10-16T17:26:36;99342.40;;;17.14;62.21
35758;BME280;21879;50.110;18.900;2022-10-16T17:37:06;99363.69;;;16.70;62.93
35758;BME280;21879;50.110;18.900;2022-10-16T17:47:37;99384.70;;;16.73;63.56
35758;BME280;21879;50.110;18.900;2022-10-16T17:58:07;99386.27;;;16.64;63.53
35758;BME280;21879;50.110;18.900;2022-10-16T18:08:35;99401.30;;;16.52;63.63
35758;BME280;21879;50.110;18.900;2022-10-16T18:19:03;99414.48;;;16.44;63.51
35758;BME280;21879;50.110;18.900;2022-10-16T18:29:31;99418.67;;;16.29;63.90
35758;BME280;21879;50.110;18.900;2022-10-16T18:39:59;99423.73;;;16.22;63.77
35758;BME280;21879;50.110;18.900;2022-10-16T18:50:26;99441.99;;;16.04;63.31
35758;BME280;21879;50.110;18.900;2022-10-16T19:00:54;99449.71;;;15.76;63.81
35758;BME280;21879;50.110;18.900;2022-10-16T19:11:21;99461.06;;;15.59;64.41
35758;BME280;21879;50.110;18.900;2022-10-16T19:21:48;99471.54;;;15.50;64.63
35758;BME280;21879;50.110;18.900;2022-10-16T19:32:21;99477.57;;;15.56;64.63
35758;BME280;21879;50.110;18.900;2022-10-16T19:42:47;99491.45;;;15.55;64.07
35758;BME280;21879;50.110;18.900;2022-10-16T19:53:15;99498.27;;;15.44;63.84
35758;BME280;21879;50.110;18.900;2022-10-16T20:03:41;99503.73;;;15.21;64.10
35758;BME280;21879;50.110;18.900;2022-10-16T20:14:09;99511.85;;;15.17;64.27
35758;BME280;21879;50.110;18.900;2022-10-16T20:24:37;99512.41;;;15.26;64.17
35758;BME280;21879;50.110;18.900;2022-10-16T20:35:06;99521.04;;;14.87;64.21
35758;BME280;21879;50.110;18.900;2022-10-16T20:45:34;99532.96;;;14.72;64.84
35758;BME280;21879;50.110;18.900;2022-10-16T20:56:02;99544.92;;;14.68;64.76
35758;BME280;21879;50.110;18.900;2022-10-16T21:06:32;99553.14;;;14.55;64.91
35758;BME280;21879;50.110;18.900;2022-10-16T21:17:00;99556.97;;;14.56;65.27
35758;BME280;21879;50.110;18.900;2022-10-16T21:27:28;99572.56;;;14.54;65.05
35758;BME280;21879;50.110;18.900;2022-10-16T21:37:55;99587.50;;;14.64;64.89
35758;BME280;21879;50.110;18.900;2022-10-16T21:48:23;99599.61;;;14.76;64.59
35758;BME280;21879;50.110;18.900;2022-10-16T21:58:51;99608.77;;;14.71;64.39
35758;BME280;21879;50.110;18.900;2022-10-16T22:09:19;99615.80;;;14.69;64.20
35758;BME280;21879;50.110;18.900;2022-10-16T22:19:45;99622.98;;;14.53;64.06
35758;BME280;21879;50.110;18.900;2022-10-16T22:30:13;99612.69;;;14.50;64.32
35758;BME280;21879;50.110;18.900;2022-10-16T22:40:39;99612.19;;;14.45;63.70
35758;BME280;21879;50.110;18.900;2022-10-16T22:51:07;99619.17;;;14.29;63.71
35758;BME280;21879;50.110;18.900;2022-10-16T23:01:42;99624.36;;;14.17;63.39
35758;BME280;21879;50.110;18.900;2022-10-16T23:12:08;99630.46;;;14.00;63.51
35758;BME280;21879;50.110;18.900;2022-10-16T23:22:36;99639.39;;;13.77;63.58
35758;BME280;21879;50.110;18.900;2022-10-16T23:33:03;99640.15;;;13.69;63.63
35758;BME280;21879;50.110;18.900;2022-10-16T23:43:31;99641.45;;;13.58;63.61
35758;BME280;21879;50.110;18.900;2022-10-16T23:53:59;99646.15;;;13.59;63.74
